Time;durP1;ratioP1;P1;durP2;ratioP2;P2;SDS_P1;SDS_P2;PMS_P1;PMS_P2;Temp;Humidity;BMP_temperature;BMP_pressure;BME280_temperature;BME280_humidity;BME280_pressure;Samples;Min_cycle;Max_cycle;Signal;HPM_P1;HPM_P2
2024/01/10 00:00:55;;;;;;;0.10;0.10;;;;;;;-5.32;100.00;100362.94;5095368;28;20210;-52
2024/01/10 00:03:43;;;;;;;0.10;0.10;;;;;;;-4.94;100.00;100367.94;5095614;28;20219;-53
2024/01/10 00:06:30;;;;;;;0.10;0.10;;;;;;;-4.99;100.00;100351.50;5095625;28;20207;-52
2024/01/10 00:09:16;;;;;;;0.10;0.10;;;;;;;-5.24;100.00;100337.28;5094143;28;20195;-53
2024/01/10 00:12:04;;;;;;;0.07;0.07;;;;;;;-5.23;100.00;100329.53;5095471;28;20237;-52
2024/01/10 00:14:50;;;;;;;0.10;0.10;;;;;;;-5.30;100.00;100338.03;5095638;28;20190;-53
2024/01/10 00:17:37;;;;;;;0.10;0.10;;;;;;;-5.50;100.00;100349.66;5095246;28;20199;-52
2024/01/10 00:20:25;;;;;;;0.10;0.10;;;;;;;-5.20;100.00;100333.91;5095065;28;20245;-52
2024/01/10 00:23:12;;;;;;;0.10;0.10;;;;;;;-5.20;100.00;100347.69;5094070;28;20253;-53
2024/01/10 00:25:59;;;;;;;0.10;0.10;;;;;;;-5.16;100.00;100343.44;5095184;28;20195;-52
2024/01/10 00:28:46;;;;;;;0.10;0.10;;;;;;;-5.04;100.00;100332.47;5095174;28;20214;-52
2024/01/10 00:31:33;;;;;;;0.10;0.10;;;;;;;-5.40;100.00;100330.97;5094297;28;20198;-52
2024/01/10 00:34:20;;;;;;;0.10;0.10;;;;;;;-5.52;100.00;100322.97;5095075;28;20199;-52
2024/01/10 00:37:08;;;;;;;0.10;0.10;;;;;;;-5.49;100.00;100313.59;5094961;28;20191;-52
2024/01/10 00:39:55;;;;;;;0.10;0.10;;;;;;;-5.43;100.00;100304.22;5093842;28;20278;-52
2024/01/10 00:42:42;;;;;;;0.10;0.10;;;;;;;-5.31;100.00;100302.72;5094964;28;20321;-53
2024/01/10 00:45:29;;;;;;;0.10;0.10;;;;;;;-5.50;100.00;100293.78;5094769;28;20191;-52
2024/01/10 00:48:17;;;;;;;0.07;0.07;;;;;;;-5.56;100.00;100291.09;5094751;28;20233;-52
2024/01/10 00:51:08;;;;;;;0.10;0.10;;;;;;;-5.36;100.00;100299.19;5094678;28;20198;-53
2024/01/10 00:53:56;;;;;;;0.10;0.10;;;;;;;-5.56;100.00;100297.94;5093386;28;20199;-52
2024/01/10 00:56:43;;;;;;;0.10;0.10;;;;;;;-5.68;100.00;100303.75;5094668;28;20198;-52
2024/01/10 00:59:30;;;;;;;0.10;0.10;;;;;;;-5.43;100.00;100307.66;5094405;28;20215;-52
2024/01/10 01:02:17;;;;;;;0.03;0.03;;;;;;;-5.34;100.00;100314.69;5078790;28;20297;-52
2024/01/10 01:05:04;;;;;;;0.10;0.10;;;;;;;-5.65;100.00;100311.53;5094351;28;20639;-53
2024/01/10 01:07:51;;;;;;;0.10;0.10;;;;;;;-5.60;100.00;100297.00;5092894;28;20195;-52
2024/01/10 01:10:40;;;;;;;0.10;0.10;;;;;;;-5.73;100.00;100304.50;5074097;28;20195;-52
2024/01/10 01:13:26;;;;;;;0.10;0.10;;;;;;;-5.70;100.00;100299.38;5074189;28;20199;-52
2024/01/10 01:16:13;;;;;;;0.00;0.00;;;;;;;-5.65;100.00;100300.34;5073911;28;20219;-52
2024/01/10 01:19:00;;;;;;;0.00;0.00;;;;;;;-5.83;100.00;100300.84;5080952;28;20256;-53
2024/01/10 01:21:47;;;;;;;0.07;0.07;;;;;;;-5.87;100.00;100292.19;5093660;28;20222;-52
2024/01/10 01:24:34;;;;;;;0.00;0.00;;;;;;;-5.76;100.00;100287.25;5092570;28;20279;-52
2024/01/10 01:27:23;;;;;;;0.10;0.10;;;;;;;-5.84;100.00;100302.56;5077357;28;20203;-52
2024/01/10 01:30:12;;;;;;;0.10;0.10;;;;;;;-5.70;100.00;100299.38;5090133;28;20202;-52
2024/01/10 01:32:58;;;;;;;0.10;0.10;;;;;;;-5.77;100.00;100295.84;5093665;28;20249;-52
2024/01/10 01:35:45;;;;;;;0.10;0.10;;;;;;;-5.80;100.00;100294.03;5093907;28;20695;-53
2024/01/10 01:38:32;;;;;;;0.10;0.10;;;;;;;-5.89;100.00;100290.41;5092521;28;20250;-52
2024/01/10 01:41:20;;;;;;;0.10;0.10;;;;;;;-5.56;100.00;100287.63;5093291;28;20289;-52
2024/01/10 01:44:08;;;;;;;0.10;0.10;;;;;;;-5.43;100.00;100288.72;5092949;28;20186;-52
2024/01/10 01:46:55;;;;;;;0.10;0.10;;;;;;;-5.55;100.00;100281.63;5093637;28;20234;-52
2024/01/10 01:49:43;;;;;;;0.10;0.10;;;;;;;-5.70;100.00;100283.91;5093480;28;20283;-52
2024/01/10 01:52:31;;;;;;;0.10;0.10;;;;;;;-5.38;100.00;100279.38;5092830;28;20195;-53
2024/01/10 01:55:18;;;;;;;0.00;0.00;;;;;;;-5.63;100.00;100270.28;5093542;28;20191;-52
2024/01/10 01:58:05;;;;;;;0.10;0.10;;;;;;;-5.64;100.00;100276.28;5093300;28;20205;-52
2024/01/10 02:00:54;;;;;;;0.10;0.10;;;;;;;-5.74;100.00;100271.78;5072959;28;20254;-52
2024/01/10 02:03:41;;;;;;;0.10;0.10;;;;;;;-5.57;100.00;100279.03;5073183;28;20195;-52
2024/01/10 02:06:29;;;;;;;0.10;0.10;;;;;;;-5.64;100.00;100274.56;5072859;28;20383;-52
2024/01/10 02:09:16;;;;;;;0.10;0.10;;;;;;;-5.35;100.00;100280.28;5071787;28;20192;-52
2024/01/10 02:12:03;;;;;;;0.10;0.10;;;;;;;-5.61;100.00;100281.50;5085446;28;20313;-52
2024/01/10 02:14:50;;;;;;;0.10;0.10;;;;;;;-4.88;100.00;100275.06;5093061;28;20202;-52
2024/01/10 02:17:38;;;;;;;0.10;0.10;;;;;;;-5.08;100.00;100279.03;5093140;28;20194;-52
2024/01/10 02:20:25;;;;;;;0.10;0.10;;;;;;;-5.56;100.00;100273.00;5093057;28;20234;-52
2024/01/10 02:23:13;;;;;;;0.10;0.10;;;;;;;-5.74;100.00;100275.25;5071514;28;20271;-53
2024/01/10 02:26:02;;;;;;;0.10;0.10;;;;;;;-5.45;100.00;100273.22;5072941;28;20192;-52
2024/01/10 02:28:48;;;;;;;0.10;0.10;;;;;;;-5.51;100.00;100265.34;5072901;28;20215;-52
2024/01/10 02:31:35;;;;;;;0.10;0.10;;;;;;;-5.71;100.00;100272.72;5081158;28;20394;-52
2024/01/10 02:34:22;;;;;;;0.10;0.10;;;;;;;-5.76;100.00;100269.19;5093201;28;20317;-53
2024/01/10 02:37:09;;;;;;;0.10;0.10;;;;;;;-5.49;100.00;100261.97;5093036;28;20206;-52
2024/01/10 02:39:56;;;;;;;0.07;0.07;;;;;;;-5.71;100.00;100253.78;5092916;28;20314;-52
2024/01/10 02:42:45;;;;;;;0.00;0.00;;;;;;;-5.62;100.00;100249.66;5092584;28;20317;-52
2024/01/10 02:45:31;;;;;;;0.10;0.10;;;;;;;-5.83;100.00;100251.84;5092862;28;20187;-53
2024/01/10 02:48:18;;;;;;;0.10;0.10;;;;;;;-5.74;100.00;100259.75;5092818;28;20214;-52
2024/01/10 02:51:05;;;;;;;0.10;0.10;;;;;;;-5.53;100.00;100262.75;5092708;28;20775;-52
2024/01/10 02:53:52;;;;;;;0.10;0.10;;;;;;;-5.21;100.00;100250.41;5091632;28;20194;-52
2024/01/10 02:56:39;;;;;;;0.10;0.10;;;;;;;-5.72;100.00;100258.06;5097024;28;20285;-52
2024/01/10 02:59:27;;;;;;;0.10;0.10;;;;;;;-5.43;100.00;100252.59;5096767;28;20203;-52
2024/01/10 03:02:14;;;;;;;0.10;0.10;;;;;;;-5.41;100.00;100245.72;5096205;28;20293;-53
2024/01/10 03:05:01;;;;;;;0.10;0.10;;;;;;;-5.13;100.00;100250.53;5097005;28;20186;-52
2024/01/10 03:07:48;;;;;;;0.10;0.10;;;;;;;-5.27;100.00;100247.72;5095473;28;20194;-52
2024/01/10 03:10:35;;;;;;;0.10;0.10;;;;;;;-5.44;100.00;100249.13;5096706;28;20612;-52
2024/01/10 03:13:22;;;;;;;0.10;0.10;;;;;;;-5.50;100.00;100249.91;5076355;28;20273;-52
2024/01/10 03:16:10;;;;;;;0.10;0.10;;;;;;;-5.42;100.00;100249.16;5076363;28;20210;-52
2024/01/10 03:18:57;;;;;;;0.10;0.10;;;;;;;-4.73;100.00;100241.72;5076327;28;20211;-52
2024/01/10 03:21:44;;;;;;;0.10;0.10;;;;;;;-5.02;100.00;100238.69;5084628;28;20244;-52
2024/01/10 03:24:32;;;;;;;0.10;0.10;;;;;;;-5.54;100.00;100240.34;5095141;28;20203;-52
2024/01/10 03:27:19;;;;;;;0.10;0.10;;;;;;;-5.61;100.00;100240.22;5096422;28;20285;-52
2024/01/10 03:30:07;;;;;;;0.10;0.10;;;;;;;-5.89;100.00;100239.69;5092883;28;20206;-52
2024/01/10 03:32:55;;;;;;;0.10;0.10;;;;;;;-5.87;100.00;100238.03;5096203;28;20301;-52
2024/01/10 03:35:43;;;;;;;0.10;0.10;;;;;;;-5.81;100.00;100239.84;5096147;28;20219;-52
2024/01/10 03:38:30;;;;;;;0.10;0.10;;;;;;;-5.95;100.00;100238.75;5094885;28;20207;-52
2024/01/10 03:41:17;;;;;;;0.10;0.10;;;;;;;-5.53;100.00;100236.06;5095828;28;20206;-53
2024/01/10 03:44:05;;;;;;;0.10;0.10;;;;;;;-5.81;100.00;100242.41;5096016;28;20194;-53
2024/01/10 03:46:52;;;;;;;0.10;0.10;;;;;;;-5.48;100.00;100234.44;5095854;28;20229;-52
2024/01/10 03:49:40;;;;;;;0.10;0.10;;;;;;;-5.63;100.00;100245.34;5095939;28;20214;-52
2024/01/10 03:52:27;;;;;;;0.10;0.10;;;;;;;-5.70;100.00;100242.63;5094954;28;20265;-52
2024/01/10 03:55:15;;;;;;;0.10;0.10;;;;;;;-5.70;100.00;100237.47;5095859;28;20210;-52
2024/01/10 03:58:02;;;;;;;0.10;0.10;;;;;;;-5.72;100.00;100239.16;5095773;28;20725;-52
2024/01/10 04:00:49;;;;;;;0.10;0.10;;;;;;;-5.50;100.00;100228.38;5095483;28;20727;-52
2024/01/10 04:03:36;;;;;;;0.10;0.10;;;;;;;-5.85;100.00;100231.19;5095693;28;20199;-52
2024/01/10 04:06:25;;;;;;;0.10;0.10;;;;;;;-5.58;100.00;100237.72;5094796;28;20203;-52
2024/01/10 04:09:12;;;;;;;0.10;0.10;;;;;;;-5.81;100.00;100222.66;5094264;28;20195;-52
2024/01/10 04:11:59;;;;;;;0.10;0.10;;;;;;;-5.82;100.00;100217.47;5095467;28;20301;-52
2024/01/10 04:14:46;;;;;;;0.10;0.10;;;;;;;-5.91;100.00;100220.78;5095505;28;20195;-52
2024/01/10 04:17:33;;;;;;;0.10;0.10;;;;;;;-5.79;100.00;100215.84;5095604;28;20213;-52
2024/01/10 04:20:20;;;;;;;0.10;0.10;;;;;;;-5.86;100.00;100226.88;5095411;28;20227;-52
2024/01/10 04:23:09;;;;;;;0.00;0.00;;;;;;;-5.61;100.00;100220.44;5073971;28;20215;-52
2024/01/10 04:25:56;;;;;;;0.10;0.10;;;;;;;-5.85;100.00;100226.03;5075034;28;20266;-52
2024/01/10 04:28:42;;;;;;;0.10;0.10;;;;;;;-5.89;100.00;100218.19;5075044;28;20199;-52
2024/01/10 04:31:29;;;;;;;0.10;0.10;;;;;;;-6.05;100.00;100219.66;5080531;28;20196;-51
2024/01/10 04:34:16;;;;;;;0.10;0.10;;;;;;;-4.90;100.00;100209.59;5095104;28;20203;-52
2024/01/10 04:37:04;;;;;;;0.10;0.10;;;;;;;-5.58;100.00;100220.50;5077748;28;20682;-52
2024/01/10 04:39:52;;;;;;;0.10;0.10;;;;;;;-5.61;100.00;100225.59;5074368;28;20191;-52
2024/01/10 04:42:39;;;;;;;0.10;0.10;;;;;;;-5.50;100.00;100229.28;5089734;28;20219;-52
2024/01/10 04:45:26;;;;;;;0.10;0.10;;;;;;;-5.26;100.00;100225.34;5094879;28;20194;-52
2024/01/10 04:48:13;;;;;;;0.10;0.10;;;;;;;-5.23;100.00;100230.56;5094760;28;20190;-52
2024/01/10 04:50:59;;;;;;;0.10;0.10;;;;;;;-5.14;100.00;100225.56;5093380;28;20194;-52
2024/01/10 04:53:46;;;;;;;0.10;0.10;;;;;;;-5.39;100.00;100229.44;5073161;28;20196;-52
2024/01/10 04:56:36;;;;;;;0.00;0.00;;;;;;;-5.69;100.00;100237.53;5074493;28;20379;-52
2024/01/10 04:59:22;;;;;;;0.10;0.10;;;;;;;-5.47;100.00;100223.28;5074271;28;20363;-52
2024/01/10 05:02:10;;;;;;;0.10;0.10;;;;;;;-5.73;100.00;100227.09;5086979;28;20324;-52
2024/01/10 05:04:57;;;;;;;0.10;0.10;;;;;;;-5.59;100.00;100228.22;5094499;28;20206;-53
2024/01/10 05:07:44;;;;;;;0.10;0.10;;;;;;;-5.91;100.00;100225.06;5093030;28;20207;-53
2024/01/10 05:10:31;;;;;;;0.10;0.10;;;;;;;-5.33;100.00;100228.66;5094440;28;20216;-52
2024/01/10 05:13:19;;;;;;;0.10;0.10;;;;;;;-5.89;100.00;100231.94;5073979;28;20230;-52
2024/01/10 05:16:06;;;;;;;0.10;0.10;;;;;;;-5.91;100.00;100230.22;5073848;28;20195;-52
2024/01/10 05:18:53;;;;;;;0.10;0.10;;;;;;;-5.82;100.00;100228.66;5073886;28;20243;-53
2024/01/10 05:21:40;;;;;;;0.10;0.10;;;;;;;-5.92;100.00;100234.50;5073619;28;20215;-53
2024/01/10 05:24:27;;;;;;;0.10;0.10;;;;;;;-5.98;100.00;100231.84;5072422;28;20195;-52
2024/01/10 05:27:14;;;;;;;0.10;0.10;;;;;;;-6.00;100.00;100223.19;5073775;28;20212;-52
2024/01/10 05:30:02;;;;;;;0.10;0.10;;;;;;;-6.09;100.00;100233.31;5073760;28;20250;-52
2024/01/10 05:32:49;;;;;;;0.10;0.10;;;;;;;-6.06;100.00;100231.69;5062330;28;20200;-52
2024/01/10 05:35:36;;;;;;;0.10;0.10;;;;;;;-5.82;100.00;100228.66;5053669;28;20248;-52
2024/01/10 05:38:23;;;;;;;0.10;0.10;;;;;;;-5.93;100.00;100226.75;5052299;28;20276;-51
2024/01/10 05:41:10;;;;;;;0.10;0.10;;;;;;;-6.00;100.00;100227.47;5055197;28;20196;-52
2024/01/10 05:43:57;;;;;;;0.10;0.10;;;;;;;-5.80;100.00;100219.22;5073199;28;20289;-52
2024/01/10 05:46:45;;;;;;;0.10;0.10;;;;;;;-5.84;100.00;100229.47;5073514;28;20196;-52
2024/01/10 05:49:32;;;;;;;0.10;0.10;;;;;;;-5.84;100.00;100230.34;5073313;28;20188;-52
2024/01/10 05:52:19;;;;;;;0.10;0.10;;;;;;;-5.98;100.00;100225.78;5073238;28;20259;-52
2024/01/10 05:55:08;;;;;;;0.10;0.10;;;;;;;-5.80;100.00;100228.69;5073346;28;20199;-52
2024/01/10 05:57:55;;;;;;;0.10;0.10;;;;;;;-5.94;100.00;100228.47;5073078;28;20235;-52
2024/01/10 06:00:42;;;;;;;0.10;0.10;;;;;;;-6.04;100.00;100229.13;5073355;28;20255;-52
2024/01/10 06:03:33;;;;;;;0.10;0.10;;;;;;;-5.85;100.00;100222.59;5052946;28;20212;-52
2024/01/10 06:06:20;;;;;;;0.10;0.10;;;;;;;-5.77;100.00;100221.88;5052915;28;20196;-52
2024/01/10 06:09:10;;;;;;;0.10;0.10;;;;;;;-5.86;100.00;100223.44;5051878;28;20323;-52
2024/01/10 06:11:57;;;;;;;0.03;0.03;;;;;;;-5.80;100.00;100216.66;5055396;28;20191;-53
2024/01/10 06:14:44;;;;;;;0.10;0.10;;;;;;;-5.86;100.00;100218.28;5072869;28;20199;-52
2024/01/10 06:17:31;;;;;;;0.10;0.10;;;;;;;-6.05;100.00;100214.50;5072955;28;20195;-52
2024/01/10 06:20:19;;;;;;;0.10;0.10;;;;;;;-6.17;100.00;100227.16;5072943;28;20238;-52
2024/01/10 06:23:06;;;;;;;0.10;0.10;;;;;;;-6.12;100.00;100231.53;5073799;28;20263;-52
2024/01/10 06:25:54;;;;;;;0.10;0.10;;;;;;;-6.35;100.00;100225.06;5072902;28;20191;-53
2024/01/10 06:28:41;;;;;;;0.10;0.10;;;;;;;-6.22;100.00;100221.88;5072868;28;20199;-52
2024/01/10 06:31:28;;;;;;;0.10;0.10;;;;;;;-6.22;100.00;100221.03;5072620;28;20235;-52
2024/01/10 06:34:15;;;;;;;0.10;0.10;;;;;;;-5.25;100.00;100209.88;5093121;28;20195;-52
2024/01/10 06:37:03;;;;;;;0.10;0.10;;;;;;;-5.64;100.00;100216.94;5092900;28;20244;-52
2024/01/10 06:39:50;;;;;;;0.10;0.10;;;;;;;-5.96;100.00;100216.38;5092836;28;20560;-52
2024/01/10 06:42:37;;;;;;;0.10;0.10;;;;;;;-5.68;100.00;100223.78;5078214;28;20227;-52
2024/01/10 06:45:24;;;;;;;0.10;0.10;;;;;;;-5.95;100.00;100221.56;5092912;28;20191;-52
2024/01/10 06:48:10;;;;;;;0.10;0.10;;;;;;;-6.08;100.00;100217.91;5092931;28;20276;-52
2024/01/10 06:50:57;;;;;;;0.10;0.10;;;;;;;-6.09;100.00;100215.25;5089566;28;20200;-52
2024/01/10 06:53:45;;;;;;;0.10;0.10;;;;;;;-6.05;100.00;100214.50;5043910;28;20195;-52
2024/01/10 06:56:33;;;;;;;0.00;0.00;;;;;;;-5.73;100.00;100202.16;5052469;28;20695;-52
2024/01/10 06:59:20;;;;;;;0.00;0.00;;;;;;;-5.85;100.00;100217.41;5052705;28;20188;-52
2024/01/10 07:02:07;;;;;;;0.07;0.07;;;;;;;-5.54;100.00;100214.56;5068566;28;20202;-52
2024/01/10 07:04:54;;;;;;;0.10;0.10;;;;;;;-5.64;100.00;100212.66;5092784;28;20190;-52
2024/01/10 07:07:41;;;;;;;0.10;0.10;;;;;;;-5.77;100.00;100216.72;5091364;28;20300;-53
2024/01/10 07:10:29;;;;;;;0.10;0.10;;;;;;;-5.91;100.00;100218.19;5092672;28;20198;-53
2024/01/10 07:13:16;;;;;;;0.10;0.10;;;;;;;-5.65;100.00;100215.22;5059281;28;20192;-52
2024/01/10 07:16:03;;;;;;;0.10;0.10;;;;;;;-5.77;100.00;100234.78;5072531;28;20198;-52
2024/01/10 07:18:51;;;;;;;0.10;0.10;;;;;;;-5.55;100.00;100230.88;5072360;28;20211;-53
2024/01/10 07:21:38;;;;;;;0.10;0.10;;;;;;;-5.97;100.00;100231.00;5080523;28;20230;-53
2024/01/10 07:24:25;;;;;;;0.10;0.10;;;;;;;-5.88;100.00;100232.84;5090884;28;20218;-52
2024/01/10 07:27:14;;;;;;;0.10;0.10;;;;;;;-5.20;100.00;100236.66;5089182;28;20311;-52
2024/01/10 07:30:01;;;;;;;0.10;0.10;;;;;;;-5.26;100.00;100238.25;5072272;28;20215;-52
2024/01/10 07:32:48;;;;;;;0.10;0.10;;;;;;;-5.32;100.00;100235.56;5086044;28;20314;-52
2024/01/10 07:35:35;;;;;;;0.03;0.03;;;;;;;-5.35;100.00;100249.28;5092499;28;20227;-52
2024/01/10 07:38:22;;;;;;;0.10;0.10;;;;;;;-5.40;100.00;100253.53;5091130;28;20218;-52
2024/01/10 07:41:09;;;;;;;0.10;0.10;;;;;;;-5.47;100.00;100254.25;5092479;28;20233;-52
2024/01/10 07:43:57;;;;;;;0.00;0.00;;;;;;;-5.37;100.00;100250.13;5075502;28;20234;-53
2024/01/10 07:46:43;;;;;;;0.10;0.10;;;;;;;-5.23;100.00;100257.25;5075611;28;20204;-52
2024/01/10 07:49:32;;;;;;;0.10;0.10;;;;;;;-5.45;100.00;100260.31;5075686;28;20551;-52
2024/01/10 07:52:19;;;;;;;0.10;0.10;;;;;;;-5.37;100.00;100258.72;5084637;28;20226;-53
2024/01/10 07:55:10;;;;;;;0.10;0.10;;;;;;;-5.51;100.00;100257.59;5095893;28;20191;-52
2024/01/10 07:57:56;;;;;;;0.10;0.10;;;;;;;-4.70;100.00;100262.44;5095868;28;20194;-52
2024/01/10 08:00:46;;;;;;;0.10;0.10;;;;;;;-4.89;100.00;100265.56;5095726;28;20374;-53
2024/01/10 08:03:33;;;;;;;0.10;0.10;;;;;;;-4.85;100.00;100269.06;5095505;28;20313;-52
2024/01/10 08:06:20;;;;;;;0.10;0.10;;;;;;;-4.73;100.00;100272.72;5095573;28;20309;-52
2024/01/10 08:09:18;;;;;;;0.10;0.10;;;;;;;-4.75;100.00;100274.38;5093893;28;20258;-52
2024/01/10 08:12:06;;;;;;;0.10;0.10;;;;;;;-4.62;100.00;100275.47;5095515;28;20267;-53
2024/01/10 08:14:53;;;;;;;0.10;0.10;;;;;;;-4.61;100.00;100272.03;5095206;28;20271;-52
2024/01/10 08:17:41;;;;;;;0.07;0.07;;;;;;;-3.91;100.00;100274.69;5095207;28;20210;-52
2024/01/10 08:20:28;;;;;;;0.10;0.10;;;;;;;-4.26;100.00;100275.09;5095400;28;20194;-52
2024/01/10 08:23:15;;;;;;;0.10;0.10;;;;;;;-4.46;100.00;100276.53;5073731;28;20216;-53
2024/01/10 08:26:02;;;;;;;0.10;0.10;;;;;;;-3.98;100.00;100280.66;5074976;28;20302;-52
2024/01/10 08:28:49;;;;;;;0.00;0.00;;;;;;;-3.84;100.00;100292.06;5075141;28;20191;-52
2024/01/10 08:31:36;;;;;;;0.10;0.10;;;;;;;-3.92;99.65;100280.72;5074908;28;20270;-52
2024/01/10 08:34:25;;;;;;;0.10;0.10;;;;;;;-3.43;98.54;100284.75;5074726;28;20183;-52
2024/01/10 08:37:11;;;;;;;0.10;0.10;;;;;;;-3.39;96.72;100281.31;5074915;28;20195;-52
2024/01/10 08:40:00;;;;;;;0.10;0.10;;;;;;;-3.42;95.73;100293.38;5074880;28;20198;-52
2024/01/10 08:42:47;;;;;;;0.10;0.10;;;;;;;-3.18;95.97;100288.47;5074134;28;20199;-52
2024/01/10 08:45:34;;;;;;;0.10;0.10;;;;;;;-3.70;93.96;100282.72;5074717;28;20235;-53
2024/01/10 08:48:21;;;;;;;0.10;0.10;;;;;;;-3.94;95.82;100280.72;5074383;28;20283;-52
2024/01/10 08:51:10;;;;;;;0.10;0.10;;;;;;;-4.03;96.47;100280.59;5074295;28;20187;-53
2024/01/10 08:53:58;;;;;;;0.10;0.10;;;;;;;-4.24;98.04;100277.75;5052888;28;20270;-52
2024/01/10 08:56:45;;;;;;;0.10;0.10;;;;;;;-4.07;97.79;100282.25;5054446;28;20200;-53
2024/01/10 08:59:31;;;;;;;0.10;0.10;;;;;;;-4.07;97.99;100287.44;5054229;28;20271;-51
2024/01/10 09:02:18;;;;;;;0.10;0.10;;;;;;;-4.06;97.76;100288.28;5062561;28;20191;-53
2024/01/10 09:05:07;;;;;;;0.10;0.10;;;;;;;-4.10;97.89;100286.53;5074022;28;20327;-52
2024/01/10 09:07:56;;;;;;;0.10;0.10;;;;;;;-4.19;98.37;100283.81;5072711;28;20196;-52
2024/01/10 09:10:43;;;;;;;0.10;0.10;;;;;;;-4.10;98.74;100287.41;5074144;28;20259;-52
2024/01/10 09:13:30;;;;;;;0.10;0.10;;;;;;;-3.56;96.96;100288.94;5074009;28;20215;-52
2024/01/10 09:16:18;;;;;;;0.10;0.10;;;;;;;-3.09;94.72;100291.13;5073921;28;20769;-52
2024/01/10 09:19:05;;;;;;;0.07;0.07;;;;;;;-3.26;94.05;100287.50;5074154;28;20192;-53
2024/01/10 09:21:55;;;;;;;0.10;0.10;;;;;;;-3.20;92.31;100293.59;5084520;28;20223;-53
2024/01/10 09:24:44;;;;;;;0.10;0.10;;;;;;;-3.47;92.31;100286.44;5093242;28;20215;-53
2024/01/10 09:27:31;;;;;;;0.10;0.10;;;;;;;-3.42;93.48;100290.78;5091158;28;20206;-53
2024/01/10 09:30:18;;;;;;;0.10;0.10;;;;;;;-3.62;93.90;100294.03;5073680;28;20195;-53
2024/01/10 09:33:05;;;;;;;0.10;0.10;;;;;;;-3.41;93.09;100292.53;5088066;28;20261;-52
2024/01/10 09:35:52;;;;;;;0.10;0.10;;;;;;;-3.02;91.80;100300.69;5093871;28;20680;-52
2024/01/10 09:38:39;;;;;;;0.10;0.10;;;;;;;-2.86;89.96;100295.66;5092344;28;20199;-53
2024/01/10 09:41:30;;;;;;;0.10;0.10;;;;;;;-2.28;87.46;100299.53;5093704;28;20191;-53
2024/01/10 09:44:18;;;;;;;0.10;0.10;;;;;;;-2.04;83.86;100303.97;5093600;28;20333;-53
2024/01/10 09:47:05;;;;;;;0.10;0.10;;;;;;;-2.00;82.21;100303.16;5093575;28;20301;-52
2024/01/10 09:49:52;;;;;;;0.10;0.10;;;;;;;-0.90;78.94;100296.53;5093661;28;20207;-53
2024/01/10 09:52:42;;;;;;;0.10;0.10;;;;;;;-0.25;72.86;100297.38;5092463;28;20198;-53
2024/01/10 09:55:35;;;;;;;0.10;0.10;;;;;;;0.84;67.80;100295.19;5093597;28;20206;-53
2024/01/10 09:58:24;;;;;;;0.10;0.10;;;;;;;2.33;59.95;100292.97;5093599;28;20830;-53
2024/01/10 10:01:10;;;;;;;0.10;0.10;;;;;;;3.30;54.78;100279.34;5093629;28;20457;-53
2024/01/10 10:03:58;;;;;;;0.10;0.10;;;;;;;4.47;51.01;100266.66;5072550;28;20247;-53
2024/01/10 10:06:45;;;;;;;0.10;0.10;;;;;;;5.58;47.63;100263.13;5073179;28;20355;-54
2024/01/10 10:09:32;;;;;;;0.10;0.10;;;;;;;6.34;44.17;100254.94;5071390;28;20203;-54
2024/01/10 10:12:19;;;;;;;0.10;0.10;;;;;;;6.38;42.20;100245.22;5080455;28;20206;-54
2024/01/10 10:15:11;;;;;;;0.10;0.10;;;;;;;7.33;40.67;100227.28;5093340;28;20222;-54
2024/01/10 10:17:58;;;;;;;0.10;0.10;;;;;;;7.73;39.87;100218.88;5093330;28;20191;-54
2024/01/10 10:20:46;;;;;;;0.10;0.10;;;;;;;7.47;39.90;100214.50;5092870;28;20237;-54
2024/01/10 10:23:33;;;;;;;0.10;0.10;;;;;;;9.44;37.71;100196.34;5091782;28;20202;-53
2024/01/10 10:26:21;;;;;;;0.10;0.10;;;;;;;9.48;36.02;100189.16;5092709;28;20196;-54
2024/01/10 10:29:08;;;;;;;0.10;0.10;;;;;;;9.12;36.29;100182.72;5092925;28;20233;-54
2024/01/10 10:31:57;;;;;;;0.10;0.10;;;;;;;8.54;36.48;100182.44;5092983;28;20194;-54
2024/01/10 10:34:44;;;;;;;0.10;0.10;;;;;;;9.20;36.29;100173.63;5077790;28;20194;-55
2024/01/10 10:37:31;;;;;;;0.10;0.10;;;;;;;11.30;34.15;100163.00;5091595;28;20222;-54
2024/01/10 10:40:19;;;;;;;0.10;0.10;;;;;;;11.13;34.13;100166.47;5092876;28;20199;-54
2024/01/10 10:43:07;;;;;;;0.10;0.10;;;;;;;11.67;32.27;100153.97;5092482;28;20700;-54
2024/01/10 10:45:57;;;;;;;0.10;0.10;;;;;;;11.07;32.49;100151.72;5092409;28;20218;-54
2024/01/10 10:48:45;;;;;;;0.10;0.10;;;;;;;10.07;34.07;100145.97;5092875;28;20195;-54
2024/01/10 10:51:34;;;;;;;0.10;0.10;;;;;;;9.86;33.97;100143.38;5092802;28;20680;-55
2024/01/10 10:54:23;;;;;;;0.10;0.10;;;;;;;8.40;35.16;100150.44;5091226;28;20191;-54
2024/01/10 10:57:10;;;;;;;0.10;0.10;;;;;;;9.30;34.98;100154.66;5092350;28;20746;-55
2024/01/10 10:59:58;;;;;;;0.10;0.10;;;;;;;10.31;33.66;100142.19;5092696;28;20263;-54
2024/01/10 11:02:45;;;;;;;0.10;0.10;;;;;;;9.61;34.66;100148.03;5092490;28;20324;-54
2024/01/10 11:05:35;;;;;;;0.10;0.10;;;;;;;10.73;33.40;100133.13;5092543;28;20285;-54
2024/01/10 11:08:24;;;;;;;0.10;0.10;;;;;;;11.28;33.01;100131.22;5091098;28;20739;-54
2024/01/10 11:11:23;;;;;;;0.10;0.10;;;;;;;12.61;31.01;100124.03;5092568;28;20669;-52
2024/01/10 11:14:28;;;;;;;0.10;0.10;;;;;;;12.67;30.63;100114.88;5072393;28;20393;-52
2024/01/10 11:17:44;;;;;;;0.00;0.00;;;;;;;12.82;30.26;100113.97;5075556;28;20277;-52
2024/01/10 11:20:48;;;;;;;0.07;0.07;;;;;;;12.56;30.59;100104.88;5045665;28;20196;-52
2024/01/10 11:23:45;;;;;;;0.10;0.10;;;;;;;9.21;33.48;100119.81;5091247;28;20677;-55
2024/01/10 11:26:33;;;;;;;0.10;0.10;;;;;;;10.80;33.01;100111.53;5078923;28;20266;-55
2024/01/10 11:29:20;;;;;;;0.10;0.10;;;;;;;8.36;34.79;100122.44;5076154;28;20262;-55
2024/01/10 11:32:09;;;;;;;0.10;0.10;;;;;;;6.97;37.22;100127.50;5080617;28;20187;-55
2024/01/10 11:34:56;;;;;;;0.10;0.10;;;;;;;6.00;39.10;100129.69;5096336;28;20190;-54
2024/01/10 11:37:46;;;;;;;0.10;0.10;;;;;;;6.39;40.27;100121.50;5094985;28;20711;-54
2024/01/10 11:40:49;;;;;;;0.10;0.10;;;;;;;6.03;41.04;100112.97;5096184;28;20199;-54
2024/01/10 11:43:35;;;;;;;0.10;0.10;;;;;;;6.06;40.95;100112.00;5096087;28;20207;-54
2024/01/10 11:46:23;;;;;;;0.10;0.10;;;;;;;8.60;38.05;100100.34;5095653;28;20222;-54
2024/01/10 11:49:11;;;;;;;0.10;0.10;;;;;;;11.10;35.10;100089.75;5096083;28;20190;-54
2024/01/10 11:52:00;;;;;;;0.10;0.10;;;;;;;11.16;33.63;100084.13;5095891;28;20222;-55
2024/01/10 11:54:50;;;;;;;0.10;0.10;;;;;;;9.08;34.43;100095.72;5095822;28;20199;-55
2024/01/10 11:57:37;;;;;;;0.10;0.10;;;;;;;8.64;34.77;100087.84;5095932;28;20284;-54
2024/01/10 12:00:23;;;;;;;0.10;0.10;;;;;;;8.48;35.82;100090.25;5095966;28;20238;-55
2024/01/10 12:03:12;;;;;;;0.10;0.10;;;;;;;7.68;36.87;100092.44;5095473;28;20237;-54
2024/01/10 12:06:00;;;;;;;0.10;0.10;;;;;;;6.66;38.14;100101.34;5095518;28;20261;-54
2024/01/10 12:08:47;;;;;;;0.10;0.10;;;;;;;7.20;38.33;100102.13;5094385;28;20195;-53
2024/01/10 12:11:35;;;;;;;0.10;0.10;;;;;;;8.99;36.89;100085.53;5095505;28;20195;-54
2024/01/10 12:14:22;;;;;;;0.10;0.10;;;;;;;8.75;36.36;100090.91;5075289;28;20215;-54
2024/01/10 12:17:08;;;;;;;0.10;0.10;;;;;;;8.72;37.32;100085.75;5075284;28;20195;-54
2024/01/10 12:19:56;;;;;;;0.10;0.10;;;;;;;9.52;35.94;100085.81;5075115;28;20250;-54
2024/01/10 12:22:43;;;;;;;0.10;0.10;;;;;;;8.54;36.54;100083.88;5082124;28;20230;-54
2024/01/10 12:25:30;;;;;;;0.10;0.10;;;;;;;8.70;36.57;100086.75;5095190;28;20218;-54
2024/01/10 12:28:18;;;;;;;0.10;0.10;;;;;;;11.45;34.00;100071.97;5094450;28;20241;-54
2024/01/10 12:31:07;;;;;;;0.00;0.00;;;;;;;12.54;31.82;100070.38;5095151;28;20195;-54
2024/01/10 12:33:56;;;;;;;0.10;0.10;;;;;;;13.90;29.87;100056.88;5095030;28;20261;-55
2024/01/10 12:36:43;;;;;;;0.10;0.10;;;;;;;16.26;27.67;100041.66;5095001;28;20195;-55
2024/01/10 12:39:31;;;;;;;0.10;0.10;;;;;;;17.52;26.13;100030.31;5093702;28;20203;-56
2024/01/10 12:42:18;;;;;;;0.10;0.10;;;;;;;15.07;27.59;100031.44;5094665;28;20210;-55
2024/01/10 12:45:21;;;;;;;0.10;0.10;;;;;;;19.00;25.03;100029.75;5094784;28;20237;-55
2024/01/10 12:48:14;;;;;;;0.10;0.10;;;;;;;18.35;24.81;100017.34;5094918;28;20198;-53
2024/01/10 12:51:04;;;;;;;0.00;0.00;;;;;;;19.61;23.88;100015.59;5094642;28;20295;-55
2024/01/10 12:53:52;;;;;;;0.10;0.10;;;;;;;20.13;23.29;100003.72;5093202;28;20198;-52
2024/01/10 12:56:39;;;;;;;0.00;0.00;;;;;;;19.26;23.96;100006.03;5113545;28;20257;-53